Time;durP1;ratioP1;P1;durP2;ratioP2;P2;SDS_P1;SDS_P2;PMS_P1;PMS_P2;Temp;Humidity;BMP_temperature;BMP_pressure;BME280_temperature;BME280_humidity;BME280_pressure;Samples;Min_cycle;Max_cycle;Signal;HPM_P1;HPM_P2
2021/01/17 00:01:52;;;;;;;86.15;36.03;;;;;;;-14.07;51.16;100732.02;1707445;84;21211;-55
2021/01/17 00:04:58;;;;;;;83.95;36.13;;;;;;;-14.16;51.34;100730.38;1707789;84;21278;-55
2021/01/17 00:08:04;;;;;;;100.38;40.70;;;;;;;-14.18;51.50;100743.97;1707595;84;21287;-56
2021/01/17 00:11:09;;;;;;;93.17;40.40;;;;;;;-14.17;51.59;100739.13;1707366;84;21834;-58
2021/01/17 00:14:15;;;;;;;97.95;40.43;;;;;;;-14.15;51.51;100738.24;1713930;81;21545;-55
2021/01/17 00:17:20;;;;;;;153.60;56.23;;;;;;;-14.14;51.41;100732.09;1723737;83;21318;-56
2021/01/17 00:20:31;;;;;;;111.88;44.08;;;;;;;-14.14;51.44;100724.20;1723538;83;21266;-55
2021/01/17 00:23:39;;;;;;;99.60;37.48;;;;;;;-14.13;51.43;100732.97;1723747;83;21718;-56
2021/01/17 00:26:45;;;;;;;87.67;36.48;;;;;;;-14.16;51.42;100725.12;1723587;83;21213;-56
2021/01/17 00:29:52;;;;;;;109.92;39.50;;;;;;;-14.20;51.19;100722.95;1723533;83;21188;-56
2021/01/17 00:33:00;;;;;;;132.22;42.15;;;;;;;-14.34;50.69;100713.06;1723674;83;21298;-55
2021/01/17 00:36:05;;;;;;;121.37;45.70;;;;;;;-14.47;50.63;100725.88;1723769;83;21202;-56
2021/01/17 00:39:13;;;;;;;122.25;45.05;;;;;;;-14.52;50.62;100727.66;1723617;83;21222;-56
2021/01/17 00:42:24;;;;;;;109.32;41.18;;;;;;;-14.61;50.55;100721.61;1723724;83;21778;-56
2021/01/17 00:45:31;;;;;;;112.47;38.23;;;;;;;-14.69;50.46;100720.38;1723646;83;21277;-56
2021/01/17 00:48:39;;;;;;;113.70;43.28;;;;;;;-14.79;50.64;100714.75;1723646;83;21735;-56
2021/01/17 00:51:48;;;;;;;107.30;40.95;;;;;;;-14.77;50.95;100710.80;1723696;83;21385;-55
2021/01/17 00:54:54;;;;;;;101.92;39.48;;;;;;;-14.78;50.90;100720.45;1723571;83;21755;-55
2021/01/17 00:58:00;;;;;;;80.10;32.33;;;;;;;-14.81;50.68;100717.86;1723725;83;21269;-55
2021/01/17 01:01:06;;;;;;;86.22;32.23;;;;;;;-14.92;50.58;100717.03;1723704;83;21227;-55
2021/01/17 01:04:13;;;;;;;92.55;34.83;;;;;;;-14.92;51.22;100728.84;1723658;83;21234;-54
2021/01/17 01:07:19;;;;;;;92.92;34.08;;;;;;;-14.84;51.22;100723.56;1723659;83;21281;-55
2021/01/17 01:10:25;;;;;;;89.45;32.65;;;;;;;-14.90;50.94;100724.47;1723729;83;21247;-56
2021/01/17 01:13:30;;;;;;;94.20;33.42;;;;;;;-14.94;51.13;100721.45;1723695;83;21214;-56
2021/01/17 01:16:38;;;;;;;100.65;34.73;;;;;;;-14.90;51.32;100716.59;1709949;82;21709;-55
2021/01/17 01:19:43;;;;;;;90.97;34.33;;;;;;;-14.81;51.49;100724.42;1707996;84;21242;-55
2021/01/17 01:22:51;;;;;;;91.28;34.23;;;;;;;-14.73;51.48;100720.41;1708062;84;21223;-55
2021/01/17 01:25:56;;;;;;;89.85;34.08;;;;;;;-14.71;51.34;100709.46;1707980;84;21207;-57
2021/01/17 01:29:04;;;;;;;86.28;33.58;;;;;;;-14.67;51.20;100713.80;1708095;84;21231;-55
2021/01/17 01:32:08;;;;;;;79.62;32.70;;;;;;;-14.71;50.75;100712.94;1708030;84;21200;-55
2021/01/17 01:35:16;;;;;;;79.85;31.95;;;;;;;-14.85;50.58;100709.55;1708054;84;21249;-55
2021/01/17 01:38:23;;;;;;;89.95;33.92;;;;;;;-14.93;50.73;100724.92;1708077;84;21718;-54
2021/01/17 01:41:28;;;;;;;90.28;34.60;;;;;;;-14.92;50.72;100710.47;1708037;84;21212;-54
2021/01/17 01:44:33;;;;;;;71.70;29.45;;;;;;;-14.91;50.70;100712.23;1708087;84;21255;-55
2021/01/17 01:47:38;;;;;;;81.65;33.65;;;;;;;-14.92;50.88;100710.94;1708244;84;21196;-55
2021/01/17 01:50:44;;;;;;;68.85;31.62;;;;;;;-14.94;50.90;100712.27;1708122;84;21208;-55
2021/01/17 01:53:49;;;;;;;80.70;31.90;;;;;;;-14.94;50.92;100721.45;1708035;84;21222;-54
2021/01/17 01:56:57;;;;;;;122.07;39.48;;;;;;;-15.01;50.74;100711.86;1707537;84;21259;-56
2021/01/17 02:00:02;;;;;;;89.97;33.67;;;;;;;-15.04;51.00;100717.12;1690580;84;21235;-56
2021/01/17 02:03:08;;;;;;;76.42;28.80;;;;;;;-14.96;51.04;100722.32;1690272;84;21266;-54
2021/01/17 02:06:14;;;;;;;88.70;32.80;;;;;;;-15.04;50.61;100726.31;1708097;84;21226;-55
2021/01/17 02:09:35;;;;;;;83.10;32.48;;;;;;;-15.17;50.43;100725.11;1707947;84;21247;-55
2021/01/17 02:12:46;;;;;;;59.88;26.65;;;;;;;-15.27;50.49;100725.61;1708295;84;21254;-55
2021/01/17 02:15:51;;;;;;;65.72;27.82;;;;;;;-15.33;50.82;100722.98;1708025;82;21294;-56
2021/01/17 02:18:57;;;;;;;70.40;27.17;;;;;;;-15.24;51.13;100722.08;1723612;83;21223;-56
2021/01/17 02:22:06;;;;;;;60.52;26.55;;;;;;;-15.18;51.12;100724.23;1723643;83;21210;-55
2021/01/17 02:25:17;;;;;;;72.95;27.65;;;;;;;-15.21;50.92;100715.06;1723688;83;21206;-54
2021/01/17 02:28:25;;;;;;;93.22;35.10;;;;;;;-15.27;50.90;100724.72;1723557;83;21254;-55
2021/01/17 02:31:30;;;;;;;106.25;39.13;;;;;;;-15.36;50.76;100717.77;1723560;83;21195;-55
2021/01/17 02:34:36;;;;;;;97.47;37.42;;;;;;;-15.44;50.85;100713.03;1723683;83;21258;-55
2021/01/17 02:38:12;;;;;;;95.20;36.80;;;;;;;-15.34;51.25;100710.77;1723653;83;21322;-55
2021/01/17 02:41:30;;;;;;;87.05;31.65;;;;;;;-15.24;51.02;100703.71;1723588;83;21222;-54
2021/01/17 02:44:39;;;;;;;65.45;23.85;;;;;;;-15.20;51.14;100698.89;1723700;83;21231;-55
2021/01/17 02:47:45;;;;;;;58.48;23.27;;;;;;;-15.12;51.23;100699.25;1723727;83;21249;-56
2021/01/17 02:50:51;;;;;;;50.50;21.00;;;;;;;-15.14;50.90;100694.44;1723683;83;21736;-55
2021/01/17 02:54:03;;;;;;;54.03;21.40;;;;;;;-15.22;50.73;100689.69;1723687;83;21230;-55
2021/01/17 02:57:20;;;;;;;45.88;20.08;;;;;;;-15.31;50.46;100679.26;1723530;83;21281;-55
2021/01/17 03:00:25;;;;;;;55.70;21.95;;;;;;;-15.41;50.27;100681.56;1723651;83;21780;-55
2021/01/17 03:03:44;;;;;;;40.48;18.10;;;;;;;-15.49;50.23;100674.18;1723553;83;21269;-56
2021/01/17 03:06:51;;;;;;;37.42;16.05;;;;;;;-15.53;50.55;100680.30;1723653;83;21183;-54
2021/01/17 03:09:57;;;;;;;43.00;16.93;;;;;;;-15.46;51.07;100674.16;1723685;83;21230;-55
2021/01/17 03:13:02;;;;;;;34.90;15.35;;;;;;;-15.34;51.37;100674.47;1723628;83;21273;-55
2021/01/17 03:16:08;;;;;;;39.85;16.55;;;;;;;-15.27;51.24;100670.50;1723536;83;21250;-55
2021/01/17 03:19:14;;;;;;;34.40;15.55;;;;;;;-15.25;51.14;100666.55;1723156;82;21358;-55
2021/01/17 03:22:19;;;;;;;42.10;16.42;;;;;;;-15.27;51.04;100667.00;1723529;83;21198;-54
2021/01/17 03:25:25;;;;;;;38.92;16.17;;;;;;;-15.20;51.25;100661.69;1723532;83;21222;-55
2021/01/17 03:28:30;;;;;;;39.10;16.97;;;;;;;-15.10;51.22;100661.19;1723646;83;21767;-56
2021/01/17 03:31:35;;;;;;;34.27;16.23;;;;;;;-15.02;51.31;100667.25;1723648;83;21226;-54
2021/01/17 03:34:47;;;;;;;33.13;15.40;;;;;;;-14.94;51.52;100668.94;1723550;83;21270;-55
2021/01/17 03:37:50;;;;;;;37.80;15.75;;;;;;;-14.85;51.56;100657.05;1723711;83;21266;-55
2021/01/17 03:40:55;;;;;;;36.23;15.80;;;;;;;-14.82;51.08;100657.02;1723829;83;21211;-56
2021/01/17 03:44:00;;;;;;;36.98;15.98;;;;;;;-14.84;50.81;100650.05;1723645;83;21238;-55
2021/01/17 03:47:06;;;;;;;40.50;15.80;;;;;;;-14.88;50.67;100650.94;1723573;83;21222;-55
2021/01/17 03:50:13;;;;;;;39.30;15.72;;;;;;;-14.97;50.70;100658.47;1723562;83;21277;-54
2021/01/17 03:53:18;;;;;;;35.50;15.70;;;;;;;-14.97;50.74;100654.53;1723650;83;21286;-55
2021/01/17 03:56:25;;;;;;;40.20;16.65;;;;;;;-14.93;50.71;100650.98;1723619;83;21739;-55
2021/01/17 03:59:30;;;;;;;34.88;15.43;;;;;;;-14.95;50.62;100654.05;1723621;83;21253;-55
2021/01/17 04:02:35;;;;;;;43.45;17.02;;;;;;;-14.93;50.68;100658.86;1723534;83;21231;-56
2021/01/17 04:05:42;;;;;;;84.15;30.12;;;;;;;-15.00;50.53;100674.68;1723606;83;21522;-56
2021/01/17 04:08:47;;;;;;;116.57;39.88;;;;;;;-15.16;50.36;100667.36;1723612;83;21242;-56
2021/01/17 04:11:54;;;;;;;110.65;38.80;;;;;;;-15.33;50.25;100668.36;1723819;83;21254;-54
2021/01/17 04:14:59;;;;;;;116.42;45.45;;;;;;;-15.47;50.14;100671.55;1703334;83;21245;-56
2021/01/17 04:18:05;;;;;;;61.60;27.07;;;;;;;-15.58;50.39;100670.27;1723347;83;21239;-55
2021/01/17 04:21:11;;;;;;;60.20;24.43;;;;;;;-15.58;50.56;100676.83;1688943;85;21222;-56
2021/01/17 04:24:17;;;;;;;38.05;16.55;;;;;;;-15.62;50.59;100680.79;1721686;82;21396;-54
2021/01/17 04:27:23;;;;;;;34.48;17.07;;;;;;;-15.54;50.76;100677.26;1721392;83;21262;-55
2021/01/17 04:30:30;;;;;;;43.02;17.15;;;;;;;-15.43;50.53;100681.13;1721380;82;21199;-55
2021/01/17 04:33:34;;;;;;;37.98;17.48;;;;;;;-15.46;50.08;100680.72;1721503;82;21372;-55
2021/01/17 04:36:42;;;;;;;61.23;26.12;;;;;;;-15.49;49.97;100679.42;1721415;82;21211;-55
2021/01/17 04:39:48;;;;;;;59.85;27.32;;;;;;;-15.49;49.72;100682.48;1721314;82;21338;-55
2021/01/17 04:42:55;;;;;;;60.67;25.12;;;;;;;-15.58;49.56;100681.23;1721327;83;21218;-54
2021/01/17 04:46:00;;;;;;;60.67;26.68;;;;;;;-15.69;49.57;100693.52;1721536;83;21353;-54
2021/01/17 04:49:09;;;;;;;65.87;26.45;;;;;;;-15.82;49.47;100691.36;1721480;83;21735;-56
2021/01/17 04:52:16;;;;;;;98.33;34.67;;;;;;;-15.92;49.59;100693.61;1721330;83;21349;-55
2021/01/17 04:55:22;;;;;;;104.80;37.70;;;;;;;-15.92;49.95;100693.61;1721381;83;21210;-56
2021/01/17 04:58:27;;;;;;;97.05;35.90;;;;;;;-15.84;50.15;100701.00;1721272;83;21245;-55
2021/01/17 05:01:55;;;;;;;96.90;35.30;;;;;;;-15.83;49.98;100707.55;1721399;82;21333;-55
2021/01/17 05:05:20;;;;;;;104.00;39.13;;;;;;;-15.89;49.80;100706.27;1721313;83;21230;-55
2021/01/17 05:08:38;;;;;;;132.05;45.55;;;;;;;-15.88;50.17;100700.56;1721300;83;21376;-54
2021/01/17 05:11:48;;;;;;;100.25;35.45;;;;;;;-15.83;50.61;100693.12;1721718;82;21349;-54
2021/01/17 05:15:04;;;;;;;94.42;31.30;;;;;;;-15.78;50.72;100683.93;1721352;83;21384;-55
2021/01/17 05:18:10;;;;;;;103.40;32.33;;;;;;;-15.81;50.83;100691.81;1721347;83;21227;-55
2021/01/17 05:21:15;;;;;;;79.70;29.02;;;;;;;-15.73;51.11;100694.39;1721037;82;21843;-54
2021/01/17 05:24:21;;;;;;;86.00;31.42;;;;;;;-15.73;50.94;100693.97;1721065;83;21223;-54
2021/01/17 05:27:26;;;;;;;73.30;29.27;;;;;;;-15.83;50.66;100692.25;1721398;83;21388;-54
2021/01/17 05:30:31;;;;;;;73.62;27.95;;;;;;;-15.88;50.94;100683.53;1721677;82;21349;-54
2021/01/17 05:33:38;;;;;;;74.17;30.27;;;;;;;-15.92;50.99;100682.66;1721327;83;21231;-54
2021/01/17 05:36:44;;;;;;;63.75;27.52;;;;;;;-15.92;51.17;100693.61;1720843;83;21405;-54
2021/01/17 05:40:10;;;;;;;78.00;30.23;;;;;;;-15.81;51.31;100689.19;1721223;83;21984;-55
2021/01/17 05:43:16;;;;;;;74.32;29.35;;;;;;;-15.62;51.35;100695.22;1721313;83;21372;-56
2021/01/17 05:46:21;;;;;;;58.28;25.45;;;;;;;-15.49;51.10;100699.09;1721295;82;21365;-55
2021/01/17 05:49:26;;;;;;;64.55;26.07;;;;;;;-15.44;50.99;100685.48;1721293;82;21207;-54
2021/01/17 05:52:33;;;;;;;61.35;25.75;;;;;;;-15.40;50.94;100699.47;1683013;83;21227;-54
2021/01/17 05:55:50;;;;;;;37.45;19.27;;;;;;;-15.36;50.82;100699.40;1721498;82;21902;-54
2021/01/17 05:58:55;;;;;;;58.05;27.70;;;;;;;-15.34;50.61;100702.02;1721173;83;21235;-55
2021/01/17 06:02:02;;;;;;;57.33;28.12;;;;;;;-15.36;50.58;100709.89;1721440;83;21389;-58
2021/01/17 06:05:09;;;;;;;66.87;26.85;;;;;;;-15.31;50.57;100713.80;1721214;83;21412;-54
2021/01/17 06:08:17;;;;;;;47.73;23.25;;;;;;;-15.23;50.63;100723.81;1721830;82;21941;-56
2021/01/17 06:11:23;;;;;;;57.48;26.10;;;;;;;-15.19;50.56;100725.55;1721401;83;21345;-55
2021/01/17 06:14:31;;;;;;;62.73;28.35;;;;;;;-15.14;50.46;100716.75;1721288;83;21396;-55
2021/01/17 06:17:45;;;;;;;96.67;39.67;;;;;;;-15.11;50.28;100725.06;1721190;83;21258;-55
2021/01/17 06:20:48;;;;;;;123.22;43.75;;;;;;;-15.09;50.32;100724.16;1720055;82;21358;-55
2021/01/17 06:24:00;;;;;;;112.20;41.20;;;;;;;-14.97;50.33;100737.22;1707997;84;21231;-56
2021/01/17 06:27:06;;;;;;;97.70;37.42;;;;;;;-14.87;50.08;100731.47;1707878;84;21211;-54
2021/01/17 06:30:25;;;;;;;100.15;40.67;;;;;;;-14.94;49.73;100735.89;1708159;84;21644;-55
2021/01/17 06:33:29;;;;;;;89.45;33.08;;;;;;;-15.00;49.68;100745.13;1692441;84;21235;-55
2021/01/17 06:36:38;;;;;;;75.65;32.20;;;;;;;-14.96;50.08;100742.89;1708209;84;21207;-55
2021/01/17 06:39:45;;;;;;;63.38;27.93;;;;;;;-14.83;50.22;100730.11;1707993;84;21319;-55
2021/01/17 06:42:53;;;;;;;81.08;32.05;;;;;;;-14.79;50.10;100730.97;1690385;84;21373;-55
2021/01/17 06:45:58;;;;;;;201.95;64.97;;;;;;;-14.66;50.40;100726.03;1707893;84;21254;-55
2021/01/17 06:49:12;;;;;;;175.25;59.77;;;;;;;-14.53;50.43;100729.88;1708184;84;21741;-55
2021/01/17 06:52:17;;;;;;;142.98;50.83;;;;;;;-14.42;50.45;100737.22;1691336;84;21465;-54
2021/01/17 06:55:26;;;;;;;98.65;39.80;;;;;;;-14.32;50.45;100724.44;1708024;84;21223;-56
2021/01/17 06:58:32;;;;;;;50.30;21.68;;;;;;;-14.25;50.36;100739.23;1707515;84;21359;-55
2021/01/17 07:01:39;;;;;;;41.18;18.92;;;;;;;-14.18;50.29;100725.13;1708186;84;21207;-55
2021/01/17 07:05:07;;;;;;;44.10;19.55;;;;;;;-14.04;50.12;100731.98;1708101;84;21232;-56
2021/01/17 07:08:50;;;;;;;45.23;23.05;;;;;;;-13.92;49.99;100734.50;1707987;84;21815;-55
2021/01/17 07:12:09;;;;;;;44.33;21.27;;;;;;;-13.83;49.83;100726.50;1708036;84;21219;-56
2021/01/17 07:15:16;;;;;;;71.50;29.95;;;;;;;-13.70;50.09;100728.99;1708018;84;21230;-55
2021/01/17 07:18:23;;;;;;;95.28;37.55;;;;;;;-13.49;50.19;100726.55;1708075;84;21239;-56
2021/01/17 07:21:28;;;;;;;77.65;35.10;;;;;;;-13.31;50.10;100739.02;1707944;84;21881;-56
2021/01/17 07:24:34;;;;;;;90.92;34.92;;;;;;;-13.19;49.93;100734.04;1729229;83;21375;-55
2021/01/17 07:28:20;;;;;;;124.38;51.73;;;;;;;-13.10;49.82;100735.22;1715464;82;21244;-54
2021/01/17 07:31:28;;;;;;;152.78;63.13;;;;;;;-12.99;49.78;100742.48;1729344;83;21690;-55
2021/01/17 07:34:35;;;;;;;141.73;58.23;;;;;;;-12.87;49.79;100745.81;1729096;83;21283;-56
2021/01/17 07:37:41;;;;;;;111.80;45.28;;;;;;;-12.75;49.77;100747.40;1699820;83;21390;-56
2021/01/17 07:40:56;;;;;;;99.05;41.23;;;;;;;-12.72;49.48;100739.45;1728945;81;21256;-56
2021/01/17 07:43:59;;;;;;;109.50;47.80;;;;;;;-12.79;49.25;100740.41;1729414;83;21272;-56
2021/01/17 07:47:04;;;;;;;121.95;51.40;;;;;;;-12.78;49.37;100739.08;1729090;83;21208;-56
2021/01/17 07:50:09;;;;;;;112.90;49.93;;;;;;;-12.73;49.30;100725.86;1729131;83;21228;-56
2021/01/17 07:53:26;;;;;;;43.25;21.48;;;;;;;-12.77;49.49;100725.03;1729364;83;21601;-56
2021/01/17 07:56:41;;;;;;;50.03;23.92;;;;;;;-12.72;49.45;100727.16;1722068;82;21445;-54
2021/01/17 07:59:46;;;;;;;52.98;26.23;;;;;;;-12.63;49.39;100730.06;1728927;83;21243;-55
2021/01/17 08:02:50;;;;;;;49.60;24.57;;;;;;;-12.49;49.32;100725.91;1729448;81;21212;-56
2021/01/17 08:06:04;;;;;;;62.38;30.08;;;;;;;-12.33;49.43;100728.72;1696782;82;21386;-55
2021/01/17 08:09:51;;;;;;;60.55;29.90;;;;;;;-12.11;49.44;100732.24;1729381;83;21931;-55
2021/01/17 08:12:56;;;;;;;62.30;31.90;;;;;;;-11.97;49.07;100723.62;1729371;83;21378;-55
2021/01/17 08:16:18;;;;;;;61.53;28.80;;;;;;;-11.82;48.93;100720.72;1729277;81;21435;-54
2021/01/17 08:19:29;;;;;;;67.67;26.70;;;;;;;-11.70;48.87;100729.70;1729360;83;21860;-55
2021/01/17 08:22:39;;;;;;;51.18;23.70;;;;;;;-11.50;48.64;100728.84;1721761;82;21377;-55
2021/01/17 08:26:01;;;;;;;46.02;21.70;;;;;;;-11.37;48.31;100724.17;1708854;84;21416;-55
2021/01/17 08:29:08;;;;;;;47.40;20.60;;;;;;;-11.33;47.88;100729.80;1709591;84;21339;-55
2021/01/17 08:32:34;;;;;;;37.83;17.80;;;;;;;-11.32;47.93;100735.05;1709177;84;21214;-56
2021/01/17 08:35:40;;;;;;;41.92;19.37;;;;;;;-11.22;48.04;100739.69;1708244;84;21230;-56
2021/01/17 08:38:45;;;;;;;33.73;16.60;;;;;;;-11.01;48.03;100729.55;1709185;84;21289;-55
2021/01/17 08:41:53;;;;;;;30.92;14.73;;;;;;;-10.81;47.61;100726.91;1709184;84;21234;-55
2021/01/17 08:45:00;;;;;;;31.62;13.80;;;;;;;-10.68;47.44;100724.37;1709046;84;21230;-55
2021/01/17 08:48:11;;;;;;;27.20;12.73;;;;;;;-10.55;47.17;100732.44;1708922;84;21819;-56
2021/01/17 08:51:26;;;;;;;32.55;15.13;;;;;;;-10.58;46.47;100723.25;1709547;84;21228;-56
2021/01/17 08:54:32;;;;;;;32.83;14.55;;;;;;;-10.79;46.30;100718.46;1709509;84;21245;-55
2021/01/17 08:57:49;;;;;;;29.95;11.15;;;;;;;-10.91;46.49;100727.09;1709443;84;21227;-55
2021/01/17 09:01:02;;;;;;;32.10;15.13;;;;;;;-11.06;46.54;100731.41;1709514;84;21207;-56
2021/01/17 09:04:08;;;;;;;37.88;19.57;;;;;;;-11.12;46.79;100729.35;1709648;84;21257;-56
2021/01/17 09:07:13;;;;;;;32.78;15.45;;;;;;;-11.17;46.96;100724.61;1708851;84;21357;-55
2021/01/17 09:10:24;;;;;;;34.27;14.70;;;;;;;-11.13;47.02;100728.95;1709503;84;21190;-55
2021/01/17 09:13:40;;;;;;;38.42;15.80;;;;;;;-11.09;47.08;100719.59;1709199;84;21238;-55
2021/01/17 09:16:58;;;;;;;30.10;15.93;;;;;;;-11.15;46.88;100713.57;1709599;84;21771;-56
2021/01/17 09:20:05;;;;;;;37.50;15.68;;;;;;;-11.20;46.98;100715.00;1709038;84;21246;-55
2021/01/17 09:23:09;;;;;;;30.52;15.38;;;;;;;-11.17;46.79;100709.64;1709236;84;21265;-57
2021/01/17 09:26:14;;;;;;;36.48;15.83;;;;;;;-11.03;46.76;100703.59;1721640;82;21270;-56
2021/01/17 09:29:39;;;;;;;31.65;15.45;;;;;;;-10.83;46.74;100701.83;1723510;83;21289;-56
2021/01/17 09:32:44;;;;;;;36.33;16.90;;;;;;;-10.58;46.64;100687.11;1723848;82;21246;-56
2021/01/17 09:35:50;;;;;;;34.27;15.85;;;;;;;-10.33;46.46;100691.32;1720516;83;21266;-57
2021/01/17 09:38:56;;;;;;;31.65;16.42;;;;;;;-10.42;46.29;100683.63;1711028;84;21297;-56
2021/01/17 09:42:01;;;;;;;26.57;12.75;;;;;;;-10.52;46.34;100685.63;1715648;83;21215;-56
2021/01/17 09:45:12;;;;;;;34.85;12.58;;;;;;;-10.53;46.46;100683.91;1723609;83;21207;-56
2021/01/17 09:48:25;;;;;;;27.62;12.60;;;;;;;-10.49;46.26;100690.84;1723342;83;21234;-56
2021/01/17 09:51:33;;;;;;;24.27;11.90;;;;;;;-10.40;46.09;100694.57;1723623;83;21282;-55
2021/01/17 09:54:38;;;;;;;29.75;13.10;;;;;;;-10.25;45.99;100712.72;1723283;83;21210;-56
2021/01/17 09:57:47;;;;;;;29.45;13.65;;;;;;;-10.09;45.82;100710.09;1702628;83;21194;-57
2021/01/17 10:00:55;;;;;;;28.77;13.20;;;;;;;-9.88;45.74;100713.92;1723527;83;21242;-55
2021/01/17 10:04:02;;;;;;;26.68;13.03;;;;;;;-9.81;45.44;100696.94;1723732;83;21226;-56
2021/01/17 10:07:07;;;;;;;26.73;13.65;;;;;;;-9.86;45.24;100697.55;1723747;83;21234;-55
2021/01/17 10:10:17;;;;;;;31.82;13.62;;;;;;;-9.85;45.10;100712.06;1723456;83;21274;-56
2021/01/17 10:13:22;;;;;;;23.95;11.97;;;;;;;-9.79;45.23;100704.39;1723638;83;21330;-56
2021/01/17 10:16:33;;;;;;;29.48;12.20;;;;;;;-9.79;45.23;100704.39;1723469;83;21379;-56
2021/01/17 10:19:46;;;;;;;28.50;13.38;;;;;;;-9.64;45.25;100711.45;1720672;83;21727;-56
2021/01/17 10:22:52;;;;;;;25.77;12.15;;;;;;;-9.50;45.09;100701.81;1723428;83;21246;-55
2021/01/17 10:25:57;;;;;;;30.92;12.20;;;;;;;-9.32;44.96;100697.77;1725349;81;21224;-55
2021/01/17 10:29:02;;;;;;;22.42;10.68;;;;;;;-9.42;44.61;100691.86;1730817;83;21333;-55
2021/01/17 10:32:17;;;;;;;27.07;12.18;;;;;;;-9.69;44.29;100686.03;1730664;83;21355;-55
2021/01/17 10:35:27;;;;;;;22.22;11.95;;;;;;;-9.79;44.56;100672.62;1730493;83;21728;-55
2021/01/17 10:38:33;;;;;;;23.05;12.68;;;;;;;-9.79;44.56;100672.62;1712913;83;21842;-55
2021/01/17 10:41:39;;;;;;;26.37;11.97;;;;;;;-9.80;44.68;100681.48;1727814;83;21402;-56
2021/01/17 10:44:59;;;;;;;26.65;13.38;;;;;;;-9.81;44.81;100690.32;1730198;83;21358;-55
2021/01/17 10:48:22;;;;;;;21.70;12.98;;;;;;;-9.72;44.89;100676.84;1730898;83;21837;-55
2021/01/17 10:51:49;;;;;;;32.13;14.35;;;;;;;-9.72;44.89;100676.84;1731135;82;21455;-56
2021/01/17 10:54:55;;;;;;;33.63;16.48;;;;;;;-9.70;44.78;100675.00;1731158;82;21848;-55
2021/01/17 10:58:00;;;;;;;29.90;14.75;;;;;;;-9.84;44.77;100673.20;1731213;83;21378;-55
2021/01/17 11:01:06;;;;;;;32.85;17.07;;;;;;;-9.77;45.32;100677.43;1730706;83;21876;-56
2021/01/17 11:04:11;;;;;;;25.68;13.75;;;;;;;-9.53;45.59;100676.73;1730945;83;21707;-56
2021/01/17 11:07:16;;;;;;;24.35;13.93;;;;;;;-9.38;45.17;100659.05;1731153;83;21339;-55
2021/01/17 11:10:22;;;;;;;25.12;12.58;;;;;;;-9.32;45.02;100656.22;1731119;83;21342;-55
2021/01/17 11:13:28;;;;;;;30.85;14.03;;;;;;;-9.16;45.07;100657.97;1730777;83;21229;-56
2021/01/17 11:16:51;;;;;;;26.10;13.45;;;;;;;-9.07;44.81;100657.23;1731445;83;21221;-55
2021/01/17 11:19:58;;;;;;;27.70;13.90;;;;;;;-8.97;44.63;100653.36;1729483;83;21232;-56
2021/01/17 11:23:12;;;;;;;31.75;14.28;;;;;;;-8.77;44.53;100648.31;1695476;83;21903;-56
2021/01/17 11:26:19;;;;;;;26.70;14.35;;;;;;;-8.58;44.30;100650.77;1730014;82;21359;-56
2021/01/17 11:29:24;;;;;;;26.25;14.45;;;;;;;-8.40;44.08;100630.23;1713351;83;21811;-55
2021/01/17 11:32:39;;;;;;;30.77;14.93;;;;;;;-8.25;43.82;100640.34;1713263;83;22088;-56
2021/01/17 11:35:44;;;;;;;;;;;;;;;-8.19;43.77;100644.08;1716064;83;21732;-56
2021/01/17 11:38:59;;;;;;;22.07;11.12;;;;;;;-8.16;43.28;100648.40;1713738;83;20218;-56
2021/01/17 11:42:04;;;;;;;28.25;14.45;;;;;;;-8.24;43.19;100634.55;1713605;83;21218;-56
2021/01/17 11:45:11;;;;;;;24.35;13.68;;;;;;;-8.31;43.43;100645.84;1713715;83;21286;-57
2021/01/17 11:48:17;;;;;;;29.15;13.68;;;;;;;-8.26;43.63;100653.67;1708158;84;21382;-56
2021/01/17 11:51:28;;;;;;;28.38;12.43;;;;;;;-8.29;43.12;100651.13;1699527;84;21574;-56
2021/01/17 11:54:36;;;;;;;26.57;14.83;;;;;;;-8.32;43.31;100652.08;1627814;86;21278;-57
2021/01/17 11:57:39;;;;;;;24.67;11.53;;;;;;;-8.36;43.24;100641.17;1659003;85;21188;-56
2021/01/17 12:01:00;;;;;;;23.98;11.08;;;;;;;-8.36;43.07;100646.48;1684472;84;21239;-55
2021/01/17 12:04:14;;;;;;;20.37;10.20;;;;;;;-8.65;42.89;100651.00;1677169;85;22085;-57
2021/01/17 12:07:19;;;;;;;24.52;11.38;;;;;;;-9.07;43.28;100653.70;1682278;84;21223;-56
2021/01/17 12:10:24;;;;;;;28.32;12.25;;;;;;;-9.21;43.83;100663.86;1676835;85;21629;-56
2021/01/17 12:13:29;;;;;;;21.42;10.03;;;;;;;-9.22;44.15;100664.31;1659859;85;21226;-56
2021/01/17 12:16:37;;;;;;;23.07;11.63;;;;;;;-9.19;44.28;100658.91;1676323;85;21239;-56
2021/01/17 12:19:42;;;;;;;25.23;12.82;;;;;;;-9.40;44.24;100654.25;1676208;85;21351;-56
2021/01/17 12:22:47;;;;;;;30.92;15.25;;;;;;;-9.51;44.63;100659.00;1676359;85;21215;-56
2021/01/17 12:25:54;;;;;;;23.15;10.90;;;;;;;-9.52;44.92;100659.48;1676750;85;21231;-56
2021/01/17 12:29:00;;;;;;;22.87;12.28;;;;;;;-9.45;45.04;100668.12;1700686;81;21227;-55
2021/01/17 12:32:06;;;;;;;25.60;12.35;;;;;;;-9.40;45.19;100668.82;1685809;84;21258;-57
2021/01/17 12:35:13;;;;;;;19.82;9.73;;;;;;;-9.45;44.92;100670.77;1676278;85;21361;-56
2021/01/17 12:38:19;;;;;;;24.65;12.63;;;;;;;-9.45;45.37;100664.14;1681962;85;21373;-55
2021/01/17 12:41:28;;;;;;;23.55;12.23;;;;;;;-9.51;45.50;100656.34;1650152;87;21884;-56
2021/01/17 12:44:33;;;;;;;23.32;12.28;;;;;;;-9.49;45.49;100665.13;1650237;87;21323;-57
2021/01/17 12:47:38;;;;;;;27.17;11.15;;;;;;;-9.49;45.64;100669.09;1651884;85;21225;-56
2021/01/17 12:50:44;;;;;;;26.68;12.58;;;;;;;-9.45;45.64;100684.02;1650243;86;21642;-56
2021/01/17 12:53:51;;;;;;;31.20;16.55;;;;;;;-9.50;45.61;100674.00;1649715;87;21232;-56
2021/01/17 12:56:56;;;;;;;36.25;16.00;;;;;;;-9.50;45.76;100683.27;1648074;86;21740;-55
2021/01/17 13:00:01;;;;;;;27.98;15.53;;;;;;;-9.44;45.92;100689.70;1678509;85;21886;-55
2021/01/17 13:03:08;;;;;;;29.27;15.50;;;;;;;-9.28;46.20;100689.67;1678931;85;21879;-55
2021/01/17 13:06:13;;;;;;;27.65;14.23;;;;;;;-9.15;46.27;100687.08;1678109;85;21286;-56
2021/01/17 13:09:19;;;;;;;28.15;14.40;;;;;;;-9.05;46.14;100679.23;1679248;85;21373;-56
2021/01/17 13:12:26;;;;;;;31.30;15.83;;;;;;;-9.00;46.03;100675.99;1678312;85;21772;-57
2021/01/17 13:15:33;;;;;;;28.02;15.05;;;;;;;-9.05;45.83;100675.73;1679207;85;21263;-55
2021/01/17 13:18:39;;;;;;;32.75;15.30;;;;;;;-9.00;45.73;100677.31;1679235;85;21283;-56
2021/01/17 13:21:46;;;;;;;34.58;16.27;;;;;;;-9.01;45.71;100676.92;1679264;85;21231;-55
2021/01/17 13:24:52;;;;;;;35.58;17.25;;;;;;;-8.91;45.77;100688.95;1679521;85;21385;-56
2021/01/17 13:28:00;;;;;;;34.60;15.63;;;;;;;-8.84;45.63;100678.58;1679391;85;21243;-56
2021/01/17 13:31:06;;;;;;;35.25;15.83;;;;;;;-8.80;45.34;100670.92;1679429;83;21389;-56
2021/01/17 13:34:12;;;;;;;39.48;17.25;;;;;;;-8.74;45.44;100680.48;1675707;85;21302;-55
2021/01/17 13:37:19;;;;;;;37.17;17.05;;;;;;;-8.68;45.41;100677.63;1678367;85;21381;-56
2021/01/17 13:40:26;;;;;;;38.50;18.20;;;;;;;-8.78;45.18;100670.42;1679264;85;21439;-56
2021/01/17 13:43:31;;;;;;;42.05;19.77;;;;;;;-8.81;45.28;100663.02;1678617;85;21340;-56
2021/01/17 13:46:37;;;;;;;34.05;18.15;;;;;;;-9.02;45.22;100671.19;1667235;85;21220;-56
2021/01/17 13:49:42;;;;;;;35.58;18.80;;;;;;;-9.12;45.20;100674.17;1684923;85;21357;-56
2021/01/17 13:52:52;;;;;;;33.50;16.77;;;;;;;-9.16;45.63;100682.67;1680444;85;21792;-57
2021/01/17 13:55:58;;;;;;;36.20;16.48;;;;;;;-9.19;45.57;100668.19;1685324;85;21756;-56
2021/01/17 13:59:04;;;;;;;31.65;17.40;;;;;;;-9.19;45.74;100667.31;1685849;85;21241;-57
2021/01/17 14:02:09;;;;;;;33.53;17.30;;;;;;;-9.17;45.76;100654.45;1686225;85;21302;-57
2021/01/17 14:05:17;;;;;;;32.48;15.68;;;;;;;-9.15;45.72;100653.07;1686047;85;21752;-56
2021/01/17 14:08:25;;;;;;;35.43;19.62;;;;;;;-9.28;45.65;100649.92;1686097;85;21224;-56